createdAt,value
2023-05-05T00:02:17.943Z,97367.25
2023-05-05T00:04:46.062Z,97363.75
2023-05-05T00:07:13.850Z,97359.53
2023-05-05T00:09:41.617Z,97361.50
2023-05-05T00:12:10.990Z,97361.34
2023-05-05T00:14:38.814Z,97369.47
2023-05-05T00:17:06.641Z,97365.25
2023-05-05T00:19:34.408Z,97365.38
2023-05-05T00:22:02.190Z,97361.34
2023-05-05T00:24:29.893Z,97356.28
2023-05-05T00:26:57.665Z,97355.59
2023-05-05T00:29:26.797Z,97357.41
2023-05-05T00:31:54.683Z,97357.69
2023-05-05T00:34:22.441Z,97353.47
2023-05-05T00:36:50.532Z,97348.44
2023-05-05T00:39:18.285Z,97347.59
2023-05-05T00:41:46.077Z,97338.59
2023-05-05T00:44:13.799Z,97342.72
2023-05-05T00:46:43.273Z,97344.66
2023-05-05T00:49:12.004Z,97335.25
2023-05-05T00:51:39.788Z,97324.19
2023-05-05T00:54:07.553Z,97325.44
2023-05-05T00:56:35.489Z,97321.66
2023-05-05T00:59:03.826Z,97307.78
2023-05-05T01:01:31.696Z,97305.31
2023-05-05T01:04:01.535Z,97301.22
2023-05-05T01:06:43.312Z,97305.00
2023-05-05T01:09:17.749Z,97309.72
2023-05-05T01:11:50.620Z,97306.34
2023-05-05T01:14:21.060Z,97311.22
2023-05-05T01:16:55.830Z,97310.09
2023-05-05T01:19:41.570Z,97302.41
2023-05-05T01:22:10.434Z,97308.09
2023-05-05T01:24:51.223Z,97317.19
2023-05-05T01:27:35.186Z,97317.06
2023-05-05T01:30:16.869Z,97322.91
2023-05-05T01:32:50.215Z,97330.28
2023-05-05T01:35:22.029Z,97326.22
2023-05-05T01:37:52.503Z,97325.78
2023-05-05T01:40:28.401Z,97325.19
2023-05-05T01:42:56.815Z,97328.81
2023-05-05T01:45:27.823Z,97327.00
2023-05-05T01:47:57.600Z,97319.91
2023-05-05T01:50:25.967Z,97284.63
2023-05-05T01:52:54.564Z,97318.09
2023-05-05T01:55:26.270Z,97320.75
2023-05-05T01:57:54.804Z,97324.34
2023-05-05T02:00:25.098Z,97323.50
2023-05-05T02:02:53.187Z,97320.31
2023-05-05T02:05:23.328Z,97325.72
2023-05-05T02:07:52.062Z,97332.97
2023-05-05T02:10:20.147Z,97334.78
2023-05-05T02:12:48.763Z,97325.16
2023-05-05T02:15:17.073Z,97338.56
2023-05-05T02:17:44.920Z,97328.47
2023-05-05T02:20:14.021Z,97345.78
2023-05-05T02:22:43.269Z,97332.81
2023-05-05T02:25:11.092Z,97339.19
2023-05-05T02:27:41.849Z,97334.31
2023-05-05T02:30:12.073Z,97338.03
2023-05-05T02:32:42.680Z,97336.47
2023-05-05T02:35:13.414Z,97343.88
2023-05-05T02:37:43.311Z,97338.94
2023-05-05T02:40:11.822Z,97339.31
2023-05-05T02:42:41.967Z,97342.25
2023-05-05T02:45:13.503Z,97348.47
2023-05-05T02:47:41.346Z,97346.69
2023-05-05T02:50:10.583Z,97342.34
2023-05-05T02:52:38.651Z,97343.31
2023-05-05T02:55:08.712Z,97332.38
2023-05-05T02:57:39.722Z,97343.44
2023-05-05T03:00:11.259Z,97344.38
2023-05-05T03:02:46.006Z,97349.84
2023-05-05T03:05:18.918Z,97350.81
2023-05-05T03:07:56.253Z,97349.13
2023-05-05T03:10:29.442Z,97352.72
2023-05-05T03:13:00.283Z,97352.13
2023-05-05T03:15:33.309Z,97346.03
2023-05-05T03:18:02.175Z,97340.97
2023-05-05T03:20:30.343Z,97341.19
2023-05-05T03:22:58.480Z,97349.16
2023-05-05T03:25:45.937Z,97344.56
2023-05-05T03:28:15.193Z,97341.81
2023-05-05T03:30:43.353Z,97344.06
2023-05-05T03:33:11.569Z,97347.88
2023-05-05T03:35:39.335Z,97340.78
2023-05-05T03:38:07.061Z,97339.94
2023-05-05T03:40:43.505Z,97341.88
2023-05-05T03:43:13.810Z,97342.13
2023-05-05T03:45:41.606Z,97339.59
2023-05-05T03:48:10.102Z,97340.84
2023-05-05T03:50:37.918Z,97337.59
2023-05-05T03:53:05.820Z,97346.03
2023-05-05T03:55:33.698Z,97346.97
2023-05-05T03:58:01.477Z,97347.94
2023-05-05T04:00:30.659Z,97348.41
2023-05-05T04:02:58.481Z,97345.03
2023-05-05T04:05:26.867Z,97347.69
2023-05-05T04:07:54.616Z,97337.34
2023-05-05T04:10:22.551Z,97345.75
2023-05-05T04:12:50.336Z,97352.22
2023-05-05T04:15:18.132Z,97358.97
2023-05-05T04:17:47.380Z,97358.94
2023-05-05T04:20:15.302Z,97359.13
2023-05-05T04:22:43.029Z,97363.47
2023-05-05T04:25:11.281Z,97362.75
2023-05-05T04:27:39.050Z,97373.53
2023-05-05T04:30:08.065Z,97360.72
2023-05-05T04:32:36.241Z,97358.81
2023-05-05T04:35:05.793Z,97358.66
2023-05-05T04:37:33.575Z,97355.44
2023-05-05T04:40:01.344Z,97358.91
2023-05-05T04:42:29.111Z,97360.94
2023-05-05T04:44:56.869Z,97356.19
2023-05-05T04:47:24.897Z,97356.97
2023-05-05T04:49:53.030Z,97365.50
2023-05-05T04:52:22.166Z,97366.34
2023-05-05T04:54:49.951Z,97369.94
2023-05-05T04:57:17.721Z,97368.97
2023-05-05T04:59:45.535Z,97372.34
2023-05-05T05:02:13.502Z,97364.41
2023-05-05T05:04:41.755Z,97367.72
2023-05-05T05:07:09.586Z,97349.00
2023-05-05T05:09:38.780Z,97378.66
2023-05-05T05:12:07.993Z,97380.94
2023-05-05T05:14:37.881Z,97377.03
2023-05-05T05:17:05.708Z,97379.31
2023-05-05T05:19:33.534Z,97377.66
2023-05-05T05:22:01.396Z,97390.25
2023-05-05T05:24:29.849Z,97385.25
2023-05-05T05:26:59.017Z,97382.78
2023-05-05T05:29:27.116Z,97384.66
2023-05-05T05:31:54.970Z,97388.16
2023-05-05T05:34:22.762Z,97390.72
2023-05-05T05:36:50.804Z,97394.34
2023-05-05T05:39:18.577Z,97396.06
2023-05-05T05:41:46.385Z,97403.91
2023-05-05T05:44:15.624Z,97401.41
2023-05-05T05:46:43.502Z,97401.81
2023-05-05T05:49:11.371Z,97415.25
2023-05-05T05:51:39.251Z,97407.69
2023-05-05T05:54:07.087Z,97405.91
2023-05-05T05:56:34.916Z,97409.66
2023-05-05T05:59:04.570Z,97402.56
2023-05-05T06:01:33.816Z,97399.44
2023-05-05T06:04:01.804Z,97396.59
2023-05-05T06:06:29.680Z,97403.47
2023-05-05T06:08:57.438Z,97402.44
2023-05-05T06:11:25.350Z,97412.63
2023-05-05T06:13:55.502Z,97414.41
2023-05-05T06:16:23.262Z,97409.09
2023-05-05T06:18:52.484Z,97406.56
2023-05-05T06:21:20.744Z,97415.84
2023-05-05T06:23:48.707Z,97406.44
2023-05-05T06:26:16.903Z,97411.06
2023-05-05T06:28:44.763Z,97404.28
2023-05-05T06:31:12.962Z,97403.84
2023-05-05T06:33:40.860Z,97403.88
2023-05-05T06:36:10.463Z,97410.97
2023-05-05T06:38:38.360Z,97405.44
2023-05-05T06:41:06.672Z,97410.91
2023-05-05T06:43:34.532Z,97416.31
2023-05-05T06:46:02.588Z,97419.78
2023-05-05T06:48:30.427Z,97421.56
2023-05-05T06:50:58.233Z,97419.53
2023-05-05T06:53:27.401Z,97423.19
2023-05-05T06:55:55.458Z,97418.19
2023-05-05T06:58:23.217Z,97425.94
2023-05-05T07:00:51.156Z,97428.31
2023-05-05T07:03:19.160Z,97426.56
2023-05-05T07:05:47.080Z,97432.53
2023-05-05T07:08:14.855Z,97427.31
2023-05-05T07:10:44.377Z,97430.78
2023-05-05T07:13:12.299Z,97435.06
2023-05-05T07:15:46.420Z,97429.66
2023-05-05T07:18:14.547Z,97435.00
2023-05-05T07:20:42.541Z,97435.47
2023-05-05T07:23:11.272Z,97433.97
2023-05-05T07:25:39.303Z,97435.47
2023-05-05T07:28:08.484Z,97441.78
2023-05-05T07:30:36.357Z,97434.03
2023-05-05T07:33:04.732Z,97439.59
2023-05-05T07:35:32.544Z,97438.81
2023-05-05T07:38:00.548Z,97446.63
2023-05-05T07:40:28.402Z,97437.91
2023-05-05T07:42:56.319Z,97445.06
2023-05-05T07:45:25.576Z,97443.72
2023-05-05T07:47:53.460Z,97446.97
2023-05-05T07:50:21.287Z,97452.06
2023-05-05T07:52:53.921Z,97445.06
2023-05-05T07:55:30.210Z,97445.84
2023-05-05T07:57:57.963Z,97442.31
2023-05-05T08:00:27.387Z,97444.38
2023-05-05T08:02:55.414Z,97449.16
2023-05-05T08:05:23.634Z,97448.22
2023-05-05T08:07:51.423Z,97445.19
2023-05-05T08:10:19.228Z,97448.41
2023-05-05T08:12:47.133Z,97444.00
2023-05-05T08:15:15.085Z,97441.28
2023-05-05T08:17:48.711Z,97443.00
2023-05-05T08:20:16.748Z,97437.97
2023-05-05T08:22:44.546Z,97443.56
2023-05-05T08:25:13.105Z,97442.56
2023-05-05T08:27:41.775Z,97447.25
2023-05-05T08:30:10.831Z,97447.63
2023-05-05T08:32:39.161Z,97450.13
2023-05-05T08:35:09.268Z,97440.25
2023-05-05T08:37:37.348Z,97447.94
2023-05-05T08:40:05.938Z,97443.44
2023-05-05T08:42:38.403Z,97437.22
2023-05-05T08:45:08.528Z,97447.78
2023-05-05T08:47:37.101Z,97442.59
2023-05-05T08:50:06.822Z,97429.72
2023-05-05T08:52:40.881Z,97437.91
2023-05-05T08:55:15.518Z,97448.31
2023-05-05T08:57:47.838Z,97432.53
2023-05-05T09:00:16.449Z,97439.91
2023-05-05T09:02:44.813Z,97430.84
2023-05-05T09:05:12.921Z,97429.16
2023-05-05T09:07:43.765Z,97431.63
2023-05-05T09:10:13.071Z,97430.84
2023-05-05T09:12:41.662Z,97431.09
2023-05-05T09:15:11.615Z,97431.69
2023-05-05T09:17:40.062Z,97426.00
2023-05-05T09:20:09.419Z,97425.81
2023-05-05T09:22:38.512Z,97423.22
2023-05-05T09:25:10.152Z,97425.91
2023-05-05T09:27:38.646Z,97430.13
2023-05-05T09:30:10.432Z,97436.34
2023-05-05T09:32:45.936Z,97424.59
2023-05-05T09:35:13.939Z,97437.56
2023-05-05T09:37:41.920Z,97418.72
2023-05-05T09:40:14.191Z,97409.94
2023-05-05T09:42:42.334Z,97412.72
2023-05-05T09:45:27.534Z,97420.63
2023-05-05T09:47:59.530Z,97428.97
2023-05-05T09:50:30.517Z,97416.22
2023-05-05T09:52:59.902Z,97417.97
2023-05-05T09:55:29.306Z,97423.19
2023-05-05T09:57:57.154Z,97425.19
2023-05-05T10:00:38.872Z,97412.16
2023-05-05T10:03:06.903Z,97421.03
2023-05-05T10:05:34.717Z,97419.84
2023-05-05T10:08:13.737Z,97422.72
2023-05-05T10:10:48.251Z,97412.91
2023-05-05T10:13:16.868Z,97413.47
2023-05-05T10:15:46.369Z,97413.31
2023-05-05T10:18:16.094Z,97409.91
2023-05-05T10:20:44.428Z,97429.50
2023-05-05T10:23:16.101Z,97415.38
2023-05-05T10:25:52.065Z,97431.31
2023-05-05T10:28:26.942Z,97412.72
2023-05-05T10:30:58.008Z,97417.31
2023-05-05T10:33:32.564Z,97414.03
2023-05-05T10:36:03.298Z,97408.81
2023-05-05T10:38:31.808Z,97403.56
2023-05-05T10:41:02.154Z,97406.56
2023-05-05T10:43:32.166Z,97404.75
2023-05-05T10:46:00.640Z,97402.59
2023-05-05T10:48:35.819Z,97404.59
2023-05-05T10:51:38.409Z,97406.31
2023-05-05T10:54:12.506Z,97404.28
2023-05-05T10:56:42.312Z,97395.31
2023-05-05T10:59:42.786Z,97381.44
2023-05-05T11:02:24.632Z,97380.97
2023-05-05T11:05:15.083Z,97389.03
2023-05-05T11:07:43.261Z,97389.63
2023-05-05T11:10:12.231Z,97383.44
2023-05-05T11:13:21.999Z,97372.91
2023-05-05T11:15:51.154Z,97367.09
2023-05-05T11:18:34.003Z,97370.59
2023-05-05T11:21:18.757Z,97370.97
2023-05-05T11:23:50.961Z,97368.78
2023-05-05T11:26:20.145Z,97376.19
2023-05-05T11:29:00.820Z,97363.25
2023-05-05T11:31:29.231Z,97363.94
2023-05-05T11:33:57.129Z,97359.53
2023-05-05T11:36:40.218Z,97359.88
2023-05-05T11:39:19.450Z,97357.25
2023-05-05T11:42:13.488Z,97345.19
2023-05-05T11:44:42.672Z,97363.59
2023-05-05T11:47:29.966Z,97341.94
2023-05-05T11:49:57.958Z,97339.34
2023-05-05T11:52:27.598Z,97348.66
2023-05-05T11:55:01.720Z,97341.69
2023-05-05T11:57:30.368Z,97345.19
2023-05-05T12:00:01.320Z,97353.53
2023-05-05T12:02:30.590Z,97350.13
2023-05-05T12:05:01.007Z,97350.34
2023-05-05T12:07:31.994Z,97349.38
2023-05-05T12:09:59.892Z,97356.69
2023-05-05T12:12:38.047Z,97343.59
2023-05-05T12:15:09.263Z,97342.56
2023-05-05T12:17:39.968Z,97348.53
2023-05-05T12:20:09.066Z,97336.06
2023-05-05T12:22:37.104Z,97301.69
2023-05-05T12:25:06.590Z,97334.78
2023-05-05T12:27:35.417Z,97331.84
2023-05-05T12:30:16.575Z,97330.16
2023-05-05T12:32:45.146Z,97319.47
2023-05-05T12:35:13.691Z,97339.09
2023-05-05T12:37:41.803Z,97327.94
2023-05-05T12:40:49.995Z,97330.72
2023-05-05T12:43:29.464Z,97334.13
2023-05-05T12:46:06.035Z,97333.34
2023-05-05T12:48:34.442Z,97329.88
2023-05-05T12:51:16.044Z,97331.13
2023-05-05T12:53:44.220Z,97334.13
2023-05-05T12:56:31.339Z,97334.97
2023-05-05T12:58:59.164Z,97321.22
2023-05-05T13:01:27.025Z,97320.25
2023-05-05T13:04:11.975Z,97315.34
2023-05-05T13:06:40.573Z,97308.66
2023-05-05T13:09:08.972Z,97307.19
2023-05-05T13:11:38.636Z,97303.78
2023-05-05T13:14:07.687Z,97308.53
2023-05-05T13:16:35.964Z,97296.47
2023-05-05T13:19:03.741Z,97299.78
2023-05-05T13:21:31.647Z,97292.06
2023-05-05T13:24:18.347Z,97289.09
2023-05-05T13:26:48.572Z,97276.56
2023-05-05T13:29:16.468Z,97277.94
2023-05-05T13:31:44.675Z,97275.44
2023-05-05T13:34:12.724Z,97276.94
2023-05-05T13:36:40.489Z,97276.09
2023-05-05T13:39:08.801Z,97283.03
2023-05-05T13:41:36.554Z,97282.38
2023-05-05T13:44:05.820Z,97274.13
2023-05-05T13:46:33.616Z,97269.63
2023-05-05T13:49:01.431Z,97272.19
2023-05-05T13:51:29.510Z,97268.03
2023-05-05T13:53:57.289Z,97271.22
2023-05-05T13:56:26.358Z,97271.00
2023-05-05T13:58:54.210Z,97269.50
2023-05-05T14:01:23.384Z,97280.56
2023-05-05T14:03:51.313Z,97274.47
2023-05-05T14:06:19.133Z,97265.31
2023-05-05T14:08:47.195Z,97272.28
2023-05-05T14:11:17.180Z,97269.28
2023-05-05T14:13:46.500Z,97269.66
2023-05-05T14:16:14.831Z,97265.19
2023-05-05T14:18:44.145Z,97270.44
2023-05-05T14:21:12.221Z,97260.19
2023-05-05T14:23:39.977Z,97262.88
2023-05-05T14:26:09.057Z,97258.28
2023-05-05T14:28:37.021Z,97265.78
2023-05-05T14:31:05.136Z,97266.66
2023-05-05T14:33:32.961Z,97269.34
2023-05-05T14:36:02.115Z,97273.22
2023-05-05T14:38:29.890Z,97281.78
2023-05-05T14:40:57.666Z,97284.94
2023-05-05T14:43:25.660Z,97285.94
2023-05-05T14:45:53.567Z,97302.00
2023-05-05T14:48:22.285Z,97306.97
2023-05-05T14:50:50.445Z,97307.97
2023-05-05T14:53:19.953Z,97308.28
2023-05-05T14:55:47.770Z,97321.63
2023-05-05T14:58:15.655Z,97324.56
2023-05-05T15:00:43.478Z,97317.44
2023-05-05T15:03:11.434Z,97320.56
2023-05-05T15:05:39.302Z,97322.00
2023-05-05T15:08:07.748Z,97320.97
2023-05-05T15:10:36.883Z,97316.91
2023-05-05T15:13:04.714Z,97288.75
2023-05-05T15:15:32.597Z,97321.25
2023-05-05T15:18:00.494Z,97306.91
2023-05-05T15:20:28.429Z,97308.94
2023-05-05T15:22:56.301Z,97308.59
2023-05-05T15:25:24.523Z,97296.66
2023-05-05T15:27:55.135Z,97314.88
2023-05-05T15:30:23.064Z,97315.22
2023-05-05T15:32:51.243Z,97311.09
2023-05-05T15:35:19.086Z,97308.91
2023-05-05T15:37:47.198Z,97311.66
2023-05-05T15:40:15.380Z,97303.91
2023-05-05T15:42:43.343Z,97307.56
2023-05-05T15:45:13.169Z,97314.66
2023-05-05T15:47:40.969Z,97313.66
2023-05-05T15:50:09.816Z,97305.69
2023-05-05T15:52:37.634Z,97312.16
2023-05-05T15:55:06.788Z,97301.34
2023-05-05T15:57:34.863Z,97315.50
2023-05-05T16:00:02.870Z,97305.06
2023-05-05T16:02:32.128Z,97313.44
2023-05-05T16:05:00.516Z,97314.91
2023-05-05T16:07:28.296Z,97318.03
2023-05-05T16:09:56.779Z,97309.13
2023-05-05T16:12:24.835Z,97318.31
2023-05-05T16:14:53.268Z,97317.50
2023-05-05T16:17:22.635Z,97322.31
2023-05-05T16:19:52.013Z,97309.28
2023-05-05T16:22:21.060Z,97310.56
2023-05-05T16:24:48.868Z,97315.66
2023-05-05T16:27:16.649Z,97314.44
2023-05-05T16:29:44.445Z,97318.53
2023-05-05T16:32:12.306Z,97304.53
2023-05-05T16:34:40.169Z,97310.19
2023-05-05T16:37:09.841Z,97309.38
2023-05-05T16:39:40.281Z,97302.44
2023-05-05T16:42:08.340Z,97295.44
2023-05-05T16:44:36.130Z,97293.16
2023-05-05T16:47:04.075Z,97290.09
2023-05-05T16:49:31.884Z,97288.66
2023-05-05T16:51:59.713Z,97288.34
2023-05-05T16:54:28.952Z,97292.84
2023-05-05T16:56:56.765Z,97289.03
2023-05-05T16:59:24.537Z,97283.25
2023-05-05T17:01:53.106Z,97283.44
2023-05-05T17:04:20.926Z,97291.41
2023-05-05T17:06:48.748Z,97290.25
2023-05-05T17:09:16.765Z,97299.53
2023-05-05T17:11:45.911Z,97305.88
2023-05-05T17:14:13.686Z,97299.66
2023-05-05T17:16:41.568Z,97307.78
2023-05-05T17:19:09.397Z,97292.56
2023-05-05T17:21:37.418Z,97300.84
2023-05-05T17:24:05.891Z,97304.09
2023-05-05T17:26:33.713Z,97294.44
2023-05-05T17:29:02.848Z,97298.06
2023-05-05T17:31:30.680Z,97291.31
2023-05-05T17:33:58.471Z,97293.56
2023-05-05T17:36:26.211Z,97297.34
2023-05-05T17:38:54.016Z,97300.84
2023-05-05T17:41:21.953Z,97288.53
2023-05-05T17:43:49.810Z,97291.19
2023-05-05T17:46:19.171Z,97298.63
2023-05-05T17:48:47.264Z,97301.72
2023-05-05T17:51:15.138Z,97296.00
2023-05-05T17:53:42.947Z,97303.97
2023-05-05T17:56:10.776Z,97304.25
2023-05-05T17:58:38.634Z,97306.50
2023-05-05T18:01:06.443Z,97305.41
2023-05-05T18:03:36.810Z,97309.31
2023-05-05T18:06:06.024Z,97312.25
2023-05-05T18:08:33.866Z,97307.91
2023-05-05T18:11:01.861Z,97316.59
2023-05-05T18:13:29.942Z,97321.94
2023-05-05T18:16:02.080Z,97317.72
2023-05-05T18:18:29.939Z,97326.41
2023-05-05T18:20:59.092Z,97319.97
2023-05-05T18:23:27.018Z,97320.53
2023-05-05T18:25:54.780Z,97315.53
2023-05-05T18:28:22.596Z,97324.75
2023-05-05T18:30:50.624Z,97324.19
2023-05-05T18:33:18.462Z,97320.97
2023-05-05T18:35:46.469Z,97326.41
2023-05-05T18:38:15.705Z,97329.50
2023-05-05T18:40:43.555Z,97334.25
2023-05-05T18:43:11.347Z,97336.06
2023-05-05T18:45:39.175Z,97336.19
2023-05-05T18:48:07.397Z,97321.09
2023-05-05T18:50:35.246Z,97324.72
2023-05-05T18:53:03.030Z,97320.38
2023-05-05T18:55:32.292Z,97321.38
2023-05-05T18:58:00.158Z,97325.84
2023-05-05T19:00:28.034Z,97329.47
2023-05-05T19:02:55.966Z,97330.59
2023-05-05T19:05:24.169Z,97334.22
2023-05-05T19:07:51.975Z,97337.84
2023-05-05T19:10:19.916Z,97345.81
2023-05-05T19:12:49.126Z,97344.13
2023-05-05T19:15:18.300Z,97345.13
2023-05-05T19:17:47.446Z,97347.09
2023-05-05T19:20:15.390Z,97343.72
2023-05-05T19:22:43.244Z,97352.94
2023-05-05T19:25:11.583Z,97346.63
2023-05-05T19:27:39.596Z,97349.84
2023-05-05T19:30:10.203Z,97355.44
2023-05-05T19:32:38.037Z,97355.16
2023-05-05T19:35:06.879Z,97356.34
2023-05-05T19:37:34.731Z,97361.22
2023-05-05T19:40:02.557Z,97363.31
2023-05-05T19:42:30.408Z,97356.88
2023-05-05T19:44:58.683Z,97370.28
2023-05-05T19:47:28.473Z,97371.34
2023-05-05T19:49:56.287Z,97381.69
2023-05-05T19:52:24.975Z,97378.59
2023-05-05T19:54:53.298Z,97385.97
2023-05-05T19:57:21.427Z,97376.16
2023-05-05T19:59:49.832Z,97381.59
2023-05-05T20:02:18.700Z,97377.50
2023-05-05T20:04:49.233Z,97373.56
2023-05-05T20:07:18.200Z,97359.88
2023-05-05T20:09:49.813Z,97366.53
2023-05-05T20:12:19.817Z,97364.25
2023-05-05T20:14:47.911Z,97370.69
2023-05-05T20:17:20.368Z,97370.38
2023-05-05T20:19:55.054Z,97374.44
2023-05-05T20:22:26.612Z,97376.63
2023-05-05T20:24:54.508Z,97378.56
2023-05-05T20:27:22.811Z,97377.88
2023-05-05T20:29:50.896Z,97377.38
2023-05-05T20:32:20.720Z,97386.84
2023-05-05T20:34:50.067Z,97385.16
2023-05-05T20:37:17.926Z,97389.66
2023-05-05T20:39:47.333Z,97383.88
2023-05-05T20:42:15.490Z,97398.81
2023-05-05T20:44:43.314Z,97393.28
2023-05-05T20:47:11.514Z,97404.84
2023-05-05T20:49:39.711Z,97406.22
2023-05-05T20:52:09.109Z,97405.88
2023-05-05T20:54:37.092Z,97403.47
2023-05-05T20:57:06.983Z,97405.56
2023-05-05T20:59:35.224Z,97412.91
2023-05-05T21:02:03.410Z,97406.88
2023-05-05T21:04:31.276Z,97420.13
2023-05-05T21:06:59.130Z,97415.09
2023-05-05T21:09:28.368Z,97403.66
2023-05-05T21:11:56.188Z,97394.13
2023-05-05T21:14:24.253Z,97398.72
2023-05-05T21:16:52.028Z,97399.91
2023-05-05T21:19:19.944Z,97399.91
2023-05-05T21:21:47.735Z,97396.56
2023-05-05T21:24:15.637Z,97404.25
2023-05-05T21:26:45.063Z,97386.47
2023-05-05T21:29:13.210Z,97394.06
2023-05-05T21:31:41.011Z,97418.72
2023-05-05T21:34:08.848Z,97415.22
2023-05-05T21:36:37.179Z,97404.75
2023-05-05T21:39:05.200Z,97415.34
2023-05-05T21:41:33.023Z,97416.53
2023-05-05T21:44:02.421Z,97412.72
2023-05-05T21:46:30.245Z,97413.91
2023-05-05T21:48:58.272Z,97412.03
2023-05-05T21:51:26.592Z,97421.19
2023-05-05T21:53:54.410Z,97410.88
2023-05-05T21:56:22.211Z,97411.81
2023-05-05T21:58:49.995Z,97410.38
2023-05-05T22:01:19.154Z,97414.25
2023-05-05T22:03:47.505Z,97403.88
2023-05-05T22:06:17.368Z,97397.63
2023-05-05T22:08:45.350Z,97396.09
2023-05-05T22:11:13.365Z,97399.09
2023-05-05T22:13:41.246Z,97413.44
2023-05-05T22:16:10.080Z,97394.06
2023-05-05T22:18:39.301Z,97402.00
2023-05-05T22:21:07.421Z,97398.91
2023-05-05T22:23:35.347Z,97410.44
2023-05-05T22:26:03.237Z,97401.66
2023-05-05T22:28:31.094Z,97398.16
2023-05-05T22:30:58.953Z,97406.34
2023-05-05T22:33:27.245Z,97406.00
2023-05-05T22:35:56.419Z,97409.59
2023-05-05T22:38:24.256Z,97410.00
2023-05-05T22:40:52.128Z,97408.78
2023-05-05T22:43:19.967Z,97409.50
2023-05-05T22:45:47.825Z,97412.53
2023-05-05T22:48:15.621Z,97408.56
2023-05-05T22:50:43.520Z,97417.69
2023-05-05T22:53:12.706Z,97412.78
2023-05-05T22:55:40.473Z,97412.19
2023-05-05T22:58:08.260Z,97411.47
2023-05-05T23:00:36.262Z,97407.13
2023-05-05T23:03:04.087Z,97405.91
2023-05-05T23:05:32.025Z,97397.00
2023-05-05T23:08:01.338Z,97404.69
2023-05-05T23:10:31.083Z,97405.16
2023-05-05T23:12:58.906Z,97408.75
2023-05-05T23:15:26.717Z,97409.81
2023-05-05T23:17:54.547Z,97405.63
2023-05-05T23:20:22.363Z,97403.34
2023-05-05T23:22:50.927Z,97408.03
2023-05-05T23:25:18.767Z,97402.25
2023-05-05T23:27:48.039Z,97399.84
2023-05-05T23:30:16.323Z,97395.00
2023-05-05T23:32:45.089Z,97399.34
2023-05-05T23:35:13.018Z,97405.38
2023-05-05T23:37:40.765Z,97397.44
2023-05-05T23:40:09.857Z,97404.63
2023-05-05T23:42:37.653Z,97399.34
2023-05-05T23:45:08.024Z,97403.06
2023-05-05T23:47:36.057Z,97406.44
2023-05-05T23:50:04.092Z,97398.72
2023-05-05T23:52:31.860Z,97403.91
2023-05-05T23:54:59.657Z,97410.66
2023-05-05T23:57:27.405Z,97409.81
2023-05-05T23:59:55.189Z,97398.63
